Impacts TAF Board INFO
FOR SITUATIONAL AWARENESS. NOT TO BE USED FOR FLIGHT PLANNING PURPOSES.
IDs:

KPIT - Pittsburgh Intl, PA, US

Issued at 2103 UTC 13 Dec 2017
Updated at 2224 UTC 13 Dec 2017
Potential Impact None Slight Moderate High
Time<<14/23Z 15/00Z 15/01Z 15/02Z 15/03Z 15/04Z 15/05Z 15/06Z 15/07Z 15/08Z 15/09Z 15/10Z 15/11Z
Type PRVL
VIS >6
CIG 35
Cover BKN
FltCat VFR
WX --
WDir 330
WSpd 7
WGst --

Raw TAF
KPIT 132103Z 1321/1424 18007KT 1SM -SN OVC020
  FM132200 15007KT 4SM -SN OVC025
  FM140100 18007KT 2SM -SHSN OVC015
  FM141300 32007KT P6SM BKN020
  FM141800 33007KT P6SM BKN035


METAR Board
Radar Display
Forecast Discussion

FOR SITUATIONAL AWARENESS. NOT TO BE USED FOR FLIGHT PLANNING PURPOSES.